createdAt,value
2023-03-22T00:05:51.023Z,100
2023-03-22T00:11:51.106Z,100
2023-03-22T00:17:51.020Z,100
2023-03-22T00:23:51.153Z,100
2023-03-22T00:29:50.990Z,100
2023-03-22T00:35:51.073Z,100
2023-03-22T00:41:51.022Z,100
2023-03-22T00:47:51.028Z,100
2023-03-22T00:53:51.185Z,100
2023-03-22T00:59:51.071Z,100
2023-03-22T01:05:51.066Z,100
2023-03-22T01:11:50.990Z,100
2023-03-22T01:17:51.032Z,100
2023-03-22T01:23:51.005Z,100
2023-03-22T01:29:51.000Z,100
2023-03-22T01:35:51.067Z,100
2023-03-22T01:41:50.984Z,100
2023-03-22T01:47:51.036Z,100
2023-03-22T01:53:51.041Z,100
2023-03-22T01:59:50.985Z,100
2023-03-22T02:05:51.015Z,100
2023-03-22T02:11:51.035Z,100
2023-03-22T02:17:50.997Z,100
2023-03-22T02:23:50.997Z,100
2023-03-22T02:29:51.080Z,100
2023-03-22T02:35:51.008Z,100
2023-03-22T02:41:51.006Z,100
2023-03-22T02:47:51.045Z,100
2023-03-22T02:53:50.992Z,100
2023-03-22T02:59:50.976Z,100
2023-03-22T03:05:51.054Z,100
2023-03-22T03:11:51.002Z,100
2023-03-22T03:17:50.994Z,100
2023-03-22T03:23:51.037Z,100
2023-03-22T03:29:50.987Z,100
2023-03-22T03:35:51.060Z,100
2023-03-22T03:41:51.000Z,100
2023-03-22T03:47:51.090Z,100
2023-03-22T03:53:51.005Z,100
2023-03-22T03:59:51.033Z,100
2023-03-22T04:05:51.003Z,100
2023-03-22T04:11:50.991Z,100
2023-03-22T04:17:51.112Z,100
2023-03-22T04:23:51.022Z,100
2023-03-22T04:29:51.283Z,100
2023-03-22T04:35:51.174Z,100
2023-03-22T04:41:50.982Z,100
2023-03-22T04:47:50.995Z,100
2023-03-22T04:53:51.005Z,100
2023-03-22T04:59:50.988Z,100
2023-03-22T05:05:51.020Z,100
2023-03-22T05:11:50.999Z,100
2023-03-22T05:17:50.997Z,100
2023-03-22T05:23:51.592Z,100
2023-03-22T05:29:51.025Z,100
2023-03-22T05:35:51.147Z,100
2023-03-22T05:41:50.982Z,100
2023-03-22T05:47:51.038Z,100
2023-03-22T05:53:50.988Z,100
2023-03-22T05:59:50.997Z,100
2023-03-22T06:05:51.037Z,100
2023-03-22T06:11:51.021Z,100
2023-03-22T06:17:50.980Z,100
2023-03-22T06:23:51.017Z,100
2023-03-22T06:29:51.200Z,100
2023-03-22T06:35:51.027Z,100
2023-03-22T06:41:51.087Z,100
2023-03-22T06:47:51.053Z,100
2023-03-22T06:53:50.976Z,100
2023-03-22T06:59:50.994Z,100
2023-03-22T07:05:50.987Z,100
2023-03-22T07:11:50.986Z,100
2023-03-22T07:17:51.071Z,100
2023-03-22T07:23:50.977Z,100
2023-03-22T07:29:50.989Z,100
2023-03-22T07:35:51.053Z,100
2023-03-22T07:41:50.968Z,100
2023-03-22T07:47:51.076Z,100
2023-03-22T07:53:51.017Z,100
2023-03-22T07:59:50.998Z,100
2023-03-22T08:05:50.992Z,100
2023-03-22T08:11:51.020Z,99
2023-03-22T08:17:50.993Z,93.3
2023-03-22T08:23:50.970Z,97.9
2023-03-22T08:29:51.097Z,94.2
2023-03-22T08:35:51.147Z,92.9
2023-03-22T08:41:50.998Z,78.8
2023-03-22T08:47:51.056Z,65.2
2023-03-22T08:53:50.976Z,65.1
2023-03-22T08:59:50.984Z,67.3
2023-03-22T09:05:51.002Z,66.7
2023-03-22T09:11:50.982Z,58.9
2023-03-22T09:17:50.984Z,57.3
2023-03-22T09:23:51.007Z,57.4
2023-03-22T09:29:50.987Z,65.6
2023-03-22T09:35:51.057Z,65.1
2023-03-22T09:41:51.005Z,62.1
2023-03-22T09:47:51.020Z,57.9
2023-03-22T09:53:50.967Z,61.1
2023-03-22T09:59:51.038Z,55.4
2023-03-22T10:05:51.037Z,49.1
2023-03-22T10:11:50.976Z,51.1
2023-03-22T10:17:51.043Z,50.7
2023-03-22T10:23:51.006Z,51.4
2023-03-22T10:29:50.981Z,51.1
2023-03-22T10:35:51.072Z,54.3
2023-03-22T10:41:50.996Z,54.2
2023-03-22T10:47:51.037Z,56.8
2023-03-22T10:53:51.026Z,53.2
2023-03-22T10:59:50.982Z,52.5
2023-03-22T11:05:50.989Z,51.8
2023-03-22T11:11:51.020Z,56
2023-03-22T11:17:51.000Z,53.2
2023-03-22T11:23:50.994Z,56.3
2023-03-22T11:29:51.030Z,58.7
2023-03-22T11:35:51.090Z,57.9
2023-03-22T11:41:51.048Z,58.9
2023-03-22T11:47:51.161Z,58.4
2023-03-22T11:53:51.003Z,58.9
2023-03-22T11:59:51.062Z,58.6
2023-03-22T12:05:51.190Z,60.7
2023-03-22T12:11:51.005Z,59.2
2023-03-22T12:17:51.037Z,57.2
2023-03-22T12:23:51.050Z,59.7
2023-03-22T12:29:51.002Z,58.4
2023-03-22T12:35:51.109Z,60.1
2023-03-22T12:41:51.081Z,62.5
2023-03-22T12:47:51.119Z,61.4
2023-03-22T12:53:51.006Z,61.5
2023-03-22T12:59:51.089Z,61.6
2023-03-22T13:05:51.066Z,61.8
2023-03-22T13:11:53.135Z,63.1
2023-03-22T13:17:51.144Z,62.4
2023-03-22T13:23:51.024Z,65.3
2023-03-22T13:29:50.995Z,64.1
2023-03-22T13:35:51.249Z,66.5
2023-03-22T13:41:51.143Z,68.8
2023-03-22T13:47:51.130Z,69.9
2023-03-22T13:53:51.057Z,70.3
2023-03-22T13:59:56.925Z,69.3
2023-03-22T14:05:51.016Z,67.8
2023-03-22T14:11:51.023Z,69
2023-03-22T14:17:51.052Z,69.4
